sensor_id;sensor_type;location;lat;lon;timestamp;P1;durP1;ratioP1;P2;durP2;ratioP2
51927;SDS011;37953;52.806;18.270;2024-03-23T00:51:35;31.52;;;10.88;;
51927;SDS011;37953;52.806;18.270;2024-03-23T00:54:01;21.10;;;10.13;;
51927;SDS011;37953;52.806;18.270;2024-03-23T00:56:29;26.13;;;10.80;;
51927;SDS011;37953;52.806;18.270;2024-03-23T00:58:58;25.95;;;10.90;;
51927;SDS011;37953;52.806;18.270;2024-03-23T01:01:24;28.50;;;10.35;;
51927;SDS011;37953;52.806;18.270;2024-03-23T01:03:50;19.38;;;10.80;;
51927;SDS011;37953;52.806;18.270;2024-03-23T01:06:16;21.02;;;10.30;;
51927;SDS011;37953;52.806;18.270;2024-03-23T01:08:43;27.92;;;10.75;;
51927;SDS011;37953;52.806;18.270;2024-03-23T01:11:09;17.52;;;10.30;;
51927;SDS011;37953;52.806;18.270;2024-03-23T01:13:35;21.85;;;10.48;;
51927;SDS011;37953;52.806;18.270;2024-03-23T01:16:01;24.75;;;10.82;;
51927;SDS011;37953;52.806;18.270;2024-03-23T01:18:27;19.50;;;10.50;;
51927;SDS011;37953;52.806;18.270;2024-03-23T01:20:54;23.73;;;10.98;;
51927;SDS011;37953;52.806;18.270;2024-03-23T01:23:25;17.67;;;10.38;;
51927;SDS011;37953;52.806;18.270;2024-03-23T01:25:55;24.50;;;10.45;;
51927;SDS011;37953;52.806;18.270;2024-03-23T01:28:24;16.80;;;9.93;;
51927;SDS011;37953;52.806;18.270;2024-03-23T01:30:50;16.83;;;10.02;;
51927;SDS011;37953;52.806;18.270;2024-03-23T01:33:16;22.55;;;10.27;;
51927;SDS011;37953;52.806;18.270;2024-03-23T01:35:42;18.27;;;10.25;;
51927;SDS011;37953;52.806;18.270;2024-03-23T01:38:09;17.55;;;10.57;;
51927;SDS011;37953;52.806;18.270;2024-03-23T01:40:35;22.42;;;10.13;;
51927;SDS011;37953;52.806;18.270;2024-03-23T01:43:04;17.00;;;10.25;;
51927;SDS011;37953;52.806;18.270;2024-03-23T01:45:33;18.67;;;9.95;;
51927;SDS011;37953;52.806;18.270;2024-03-23T01:48:00;19.77;;;10.27;;
51927;SDS011;37953;52.806;18.270;2024-03-23T01:50:26;16.83;;;10.27;;
51927;SDS011;37953;52.806;18.270;2024-03-23T01:52:53;21.52;;;11.23;;
51927;SDS011;37953;52.806;18.270;2024-03-23T01:55:20;23.20;;;11.05;;
51927;SDS011;37953;52.806;18.270;2024-03-23T01:57:46;17.60;;;11.02;;
51927;SDS011;37953;52.806;18.270;2024-03-23T02:00:13;21.95;;;11.48;;
51927;SDS011;37953;52.806;18.270;2024-03-23T02:02:43;24.50;;;11.30;;
51927;SDS011;37953;52.806;18.270;2024-03-23T02:05:12;19.45;;;11.93;;
51927;SDS011;37953;52.806;18.270;2024-03-23T02:07:43;23.02;;;10.88;;
51927;SDS011;37953;52.806;18.270;2024-03-23T02:10:10;19.77;;;11.55;;
51927;SDS011;37953;52.806;18.270;2024-03-23T02:12:39;24.15;;;11.93;;
51927;SDS011;37953;52.806;18.270;2024-03-23T02:15:05;18.95;;;11.75;;
51927;SDS011;37953;52.806;18.270;2024-03-23T02:17:33;22.40;;;12.18;;
51927;SDS011;37953;52.806;18.270;2024-03-23T02:20:06;19.88;;;11.15;;
51927;SDS011;37953;52.806;18.270;2024-03-23T02:22:36;19.40;;;11.25;;
51927;SDS011;37953;52.806;18.270;2024-03-23T02:25:04;27.55;;;11.27;;
51927;SDS011;37953;52.806;18.270;2024-03-23T02:27:31;17.95;;;10.68;;
51927;SDS011;37953;52.806;18.270;2024-03-23T02:29:58;17.75;;;8.48;;
51927;SDS011;37953;52.806;18.270;2024-03-23T02:32:24;17.73;;;6.57;;
51927;SDS011;37953;52.806;18.270;2024-03-23T02:34:51;20.85;;;5.68;;
51927;SDS011;37953;52.806;18.270;2024-03-23T02:37:17;18.10;;;5.18;;
51927;SDS011;37953;52.806;18.270;2024-03-23T02:39:43;23.25;;;4.95;;
51927;SDS011;37953;52.806;18.270;2024-03-23T02:42:09;17.83;;;4.35;;
51927;SDS011;37953;52.806;18.270;2024-03-23T02:44:35;14.20;;;3.75;;
51927;SDS011;37953;52.806;18.270;2024-03-23T02:47:02;15.60;;;3.50;;
51927;SDS011;37953;52.806;18.270;2024-03-23T02:49:28;22.15;;;4.63;;
51927;SDS011;37953;52.806;18.270;2024-03-23T02:51:55;15.15;;;3.78;;
51927;SDS011;37953;52.806;18.270;2024-03-23T02:54:21;33.22;;;4.78;;
51927;SDS011;37953;52.806;18.270;2024-03-23T02:56:47;23.50;;;4.20;;
51927;SDS011;37953;52.806;18.270;2024-03-23T02:59:13;32.08;;;4.32;;
51927;SDS011;37953;52.806;18.270;2024-03-23T03:01:40;31.95;;;4.15;;
51927;SDS011;37953;52.806;18.270;2024-03-23T03:04:06;32.60;;;4.10;;
51927;SDS011;37953;52.806;18.270;2024-03-23T03:06:32;26.58;;;4.13;;
51927;SDS011;37953;52.806;18.270;2024-03-23T03:08:58;32.28;;;4.00;;
51927;SDS011;37953;52.806;18.270;2024-03-23T03:11:25;33.40;;;4.00;;
51927;SDS011;37953;52.806;18.270;2024-03-23T03:13:51;26.33;;;3.92;;
51927;SDS011;37953;52.806;18.270;2024-03-23T03:16:17;29.73;;;3.30;;
51927;SDS011;37953;52.806;18.270;2024-03-23T03:18:43;34.20;;;3.70;;
51927;SDS011;37953;52.806;18.270;2024-03-23T03:21:12;35.63;;;4.15;;
51927;SDS011;37953;52.806;18.270;2024-03-23T03:23:38;31.15;;;3.85;;
51927;SDS011;37953;52.806;18.270;2024-03-23T03:26:04;21.02;;;3.58;;
51927;SDS011;37953;52.806;18.270;2024-03-23T03:28:31;27.15;;;3.88;;
51927;SDS011;37953;52.806;18.270;2024-03-23T03:31:07;16.40;;;2.92;;
51927;SDS011;37953;52.806;18.270;2024-03-23T03:33:33;20.40;;;3.80;;
51927;SDS011;37953;52.806;18.270;2024-03-23T03:35:59;26.85;;;4.28;;
51927;SDS011;37953;52.806;18.270;2024-03-23T03:38:25;19.48;;;4.10;;
51927;SDS011;37953;52.806;18.270;2024-03-23T03:40:52;24.90;;;3.83;;
51927;SDS011;37953;52.806;18.270;2024-03-23T03:43:28;26.40;;;4.03;;
51927;SDS011;37953;52.806;18.270;2024-03-23T03:45:56;22.35;;;3.63;;
51927;SDS011;37953;52.806;18.270;2024-03-23T03:48:33;17.27;;;3.42;;
51927;SDS011;37953;52.806;18.270;2024-03-23T03:51:00;23.83;;;3.38;;
51927;SDS011;37953;52.806;18.270;2024-03-23T03:53:26;29.85;;;4.15;;
51927;SDS011;37953;52.806;18.270;2024-03-23T03:55:52;30.38;;;3.83;;
51927;SDS011;37953;52.806;18.270;2024-03-23T03:58:18;33.88;;;4.45;;
51927;SDS011;37953;52.806;18.270;2024-03-23T04:00:44;41.92;;;4.57;;
51927;SDS011;37953;52.806;18.270;2024-03-23T04:03:10;29.73;;;3.45;;
51927;SDS011;37953;52.806;18.270;2024-03-23T04:05:36;30.48;;;4.10;;
51927;SDS011;37953;52.806;18.270;2024-03-23T04:08:04;25.63;;;3.75;;
51927;SDS011;37953;52.806;18.270;2024-03-23T04:10:49;34.38;;;4.13;;
51927;SDS011;37953;52.806;18.270;2024-03-23T04:13:15;28.02;;;4.20;;
51927;SDS011;37953;52.806;18.270;2024-03-23T04:15:41;22.17;;;4.13;;
51927;SDS011;37953;52.806;18.270;2024-03-23T04:18:08;30.30;;;4.25;;
51927;SDS011;37953;52.806;18.270;2024-03-23T04:20:34;26.85;;;3.75;;
51927;SDS011;37953;52.806;18.270;2024-03-23T04:23:01;24.45;;;3.88;;
51927;SDS011;37953;52.806;18.270;2024-03-23T04:25:27;28.48;;;4.72;;
51927;SDS011;37953;52.806;18.270;2024-03-23T04:27:53;23.95;;;5.20;;
51927;SDS011;37953;52.806;18.270;2024-03-23T04:30:19;29.38;;;5.63;;
51927;SDS011;37953;52.806;18.270;2024-03-23T04:32:46;25.15;;;5.45;;
51927;SDS011;37953;52.806;18.270;2024-03-23T04:35:13;21.45;;;5.18;;
51927;SDS011;37953;52.806;18.270;2024-03-23T04:37:39;24.92;;;4.72;;
51927;SDS011;37953;52.806;18.270;2024-03-23T04:40:08;20.27;;;5.10;;
51927;SDS011;37953;52.806;18.270;2024-03-23T04:42:35;20.17;;;4.72;;
51927;SDS011;37953;52.806;18.270;2024-03-23T04:45:00;25.58;;;5.43;;
51927;SDS011;37953;52.806;18.270;2024-03-23T04:47:27;29.58;;;7.82;;
51927;SDS011;37953;52.806;18.270;2024-03-23T04:49:53;23.52;;;5.88;;
51927;SDS011;37953;52.806;18.270;2024-03-23T04:52:20;154.60;;;10.50;;
51927;SDS011;37953;52.806;18.270;2024-03-23T04:54:46;16.65;;;5.30;;
51927;SDS011;37953;52.806;18.270;2024-03-23T04:57:12;17.85;;;5.13;;
51927;SDS011;37953;52.806;18.270;2024-03-23T04:59:38;21.63;;;4.45;;
51927;SDS011;37953;52.806;18.270;2024-03-23T05:02:05;16.33;;;3.80;;
51927;SDS011;37953;52.806;18.270;2024-03-23T05:04:31;21.33;;;5.18;;
51927;SDS011;37953;52.806;18.270;2024-03-23T05:06:58;23.50;;;5.78;;
51927;SDS011;37953;52.806;18.270;2024-03-23T05:09:24;17.77;;;5.60;;
51927;SDS011;37953;52.806;18.270;2024-03-23T05:11:50;23.33;;;5.07;;
51927;SDS011;37953;52.806;18.270;2024-03-23T05:14:16;22.08;;;4.13;;
51927;SDS011;37953;52.806;18.270;2024-03-23T05:16:42;16.90;;;4.20;;
51927;SDS011;37953;52.806;18.270;2024-03-23T05:19:08;29.63;;;9.35;;
51927;SDS011;37953;52.806;18.270;2024-03-23T05:21:35;41.38;;;12.55;;
51927;SDS011;37953;52.806;18.270;2024-03-23T05:24:00;27.02;;;9.02;;
51927;SDS011;37953;52.806;18.270;2024-03-23T05:26:27;26.98;;;7.57;;
51927;SDS011;37953;52.806;18.270;2024-03-23T05:28:53;26.38;;;6.78;;
51927;SDS011;37953;52.806;18.270;2024-03-23T05:31:25;29.83;;;8.77;;
51927;SDS011;37953;52.806;18.270;2024-03-23T05:33:52;27.45;;;7.55;;
51927;SDS011;37953;52.806;18.270;2024-03-23T05:36:18;26.45;;;5.90;;
51927;SDS011;37953;52.806;18.270;2024-03-23T05:38:44;15.35;;;5.18;;
51927;SDS011;37953;52.806;18.270;2024-03-23T05:41:10;26.77;;;6.13;;
51927;SDS011;37953;52.806;18.270;2024-03-23T05:43:36;22.38;;;5.05;;
51927;SDS011;37953;52.806;18.270;2024-03-23T05:46:03;18.40;;;5.00;;
51927;SDS011;37953;52.806;18.270;2024-03-23T05:48:30;23.85;;;4.68;;
51927;SDS011;37953;52.806;18.270;2024-03-23T05:51:01;18.77;;;4.22;;
51927;SDS011;37953;52.806;18.270;2024-03-23T05:53:32;43.45;;;4.82;;
51927;SDS011;37953;52.806;18.270;2024-03-23T05:56:19;34.90;;;5.93;;
51927;SDS011;37953;52.806;18.270;2024-03-23T05:58:54;38.13;;;6.28;;
51927;SDS011;37953;52.806;18.270;2024-03-23T06:01:20;36.20;;;6.20;;
51927;SDS011;37953;52.806;18.270;2024-03-23T06:03:58;28.77;;;4.97;;
51927;SDS011;37953;52.806;18.270;2024-03-23T06:06:24;38.03;;;6.00;;
51927;SDS011;37953;52.806;18.270;2024-03-23T06:08:50;43.38;;;5.82;;
51927;SDS011;37953;52.806;18.270;2024-03-23T06:11:16;31.13;;;4.85;;
51927;SDS011;37953;52.806;18.270;2024-03-23T06:13:42;36.10;;;4.85;;
51927;SDS011;37953;52.806;18.270;2024-03-23T06:16:08;34.08;;;4.72;;
51927;SDS011;37953;52.806;18.270;2024-03-23T06:18:35;34.30;;;6.10;;
51927;SDS011;37953;52.806;18.270;2024-03-23T06:21:02;40.05;;;10.07;;
51927;SDS011;37953;52.806;18.270;2024-03-23T06:23:28;51.95;;;10.38;;
51927;SDS011;37953;52.806;18.270;2024-03-23T06:25:54;29.00;;;7.38;;
51927;SDS011;37953;52.806;18.270;2024-03-23T06:28:20;43.28;;;7.10;;
51927;SDS011;37953;52.806;18.270;2024-03-23T06:30:47;36.85;;;7.10;;
51927;SDS011;37953;52.806;18.270;2024-03-23T06:33:13;35.85;;;6.20;;
51927;SDS011;37953;52.806;18.270;2024-03-23T06:35:40;38.40;;;5.40;;
51927;SDS011;37953;52.806;18.270;2024-03-23T06:38:06;40.97;;;5.25;;
51927;SDS011;37953;52.806;18.270;2024-03-23T06:40:33;34.47;;;5.28;;
51927;SDS011;37953;52.806;18.270;2024-03-23T06:43:01;46.50;;;4.90;;
51927;SDS011;37953;52.806;18.270;2024-03-23T06:45:27;50.13;;;6.05;;
51927;SDS011;37953;52.806;18.270;2024-03-23T06:47:53;37.03;;;4.97;;
51927;SDS011;37953;52.806;18.270;2024-03-23T06:50:30;38.03;;;4.38;;
51927;SDS011;37953;52.806;18.270;2024-03-23T06:52:56;33.88;;;3.70;;
51927;SDS011;37953;52.806;18.270;2024-03-23T06:55:25;46.85;;;4.38;;
51927;SDS011;37953;52.806;18.270;2024-03-23T06:57:52;43.08;;;4.10;;
51927;SDS011;37953;52.806;18.270;2024-03-23T07:00:18;40.05;;;4.18;;
51927;SDS011;37953;52.806;18.270;2024-03-23T07:02:45;38.50;;;4.18;;
51927;SDS011;37953;52.806;18.270;2024-03-23T07:05:11;37.50;;;4.85;;
51927;SDS011;37953;52.806;18.270;2024-03-23T07:07:39;39.15;;;6.10;;
51927;SDS011;37953;52.806;18.270;2024-03-23T07:10:06;39.70;;;6.03;;
51927;SDS011;37953;52.806;18.270;2024-03-23T07:12:32;41.60;;;6.95;;
51927;SDS011;37953;52.806;18.270;2024-03-23T07:14:58;48.35;;;8.48;;
51927;SDS011;37953;52.806;18.270;2024-03-23T07:17:24;52.35;;;8.77;;
51927;SDS011;37953;52.806;18.270;2024-03-23T07:19:51;46.65;;;8.88;;
51927;SDS011;37953;52.806;18.270;2024-03-23T07:22:19;53.80;;;7.18;;
51927;SDS011;37953;52.806;18.270;2024-03-23T07:24:45;33.03;;;6.63;;
51927;SDS011;37953;52.806;18.270;2024-03-23T07:27:11;20.92;;;5.15;;
51927;SDS011;37953;52.806;18.270;2024-03-23T07:29:37;18.08;;;3.72;;
51927;SDS011;37953;52.806;18.270;2024-03-23T07:32:03;25.80;;;4.20;;
51927;SDS011;37953;52.806;18.270;2024-03-23T07:34:30;19.20;;;4.57;;
51927;SDS011;37953;52.806;18.270;2024-03-23T07:36:56;24.88;;;4.43;;
51927;SDS011;37953;52.806;18.270;2024-03-23T07:39:22;27.40;;;4.47;;
51927;SDS011;37953;52.806;18.270;2024-03-23T07:41:48;18.45;;;3.58;;
51927;SDS011;37953;52.806;18.270;2024-03-23T07:44:14;25.15;;;4.05;;
51927;SDS011;37953;52.806;18.270;2024-03-23T07:46:40;21.50;;;3.70;;
51927;SDS011;37953;52.806;18.270;2024-03-23T07:49:07;17.52;;;4.10;;
51927;SDS011;37953;52.806;18.270;2024-03-23T07:51:33;21.27;;;3.63;;
51927;SDS011;37953;52.806;18.270;2024-03-23T07:54:00;36.75;;;4.95;;
51927;SDS011;37953;52.806;18.270;2024-03-23T07:56:26;29.63;;;5.07;;
51927;SDS011;37953;52.806;18.270;2024-03-23T07:58:52;39.95;;;5.35;;
51927;SDS011;37953;52.806;18.270;2024-03-23T08:01:18;34.40;;;4.95;;
51927;SDS011;37953;52.806;18.270;2024-03-23T08:03:45;29.83;;;4.00;;
51927;SDS011;37953;52.806;18.270;2024-03-23T08:06:15;37.40;;;5.00;;
51927;SDS011;37953;52.806;18.270;2024-03-23T08:08:46;28.23;;;4.43;;
51927;SDS011;37953;52.806;18.270;2024-03-23T08:11:14;45.70;;;4.90;;
51927;SDS011;37953;52.806;18.270;2024-03-23T08:13:41;51.47;;;6.38;;
51927;SDS011;37953;52.806;18.270;2024-03-23T08:16:08;40.40;;;5.95;;
51927;SDS011;37953;52.806;18.270;2024-03-23T08:18:40;47.38;;;5.03;;
51927;SDS011;37953;52.806;18.270;2024-03-23T08:21:06;47.83;;;4.57;;
51927;SDS011;37953;52.806;18.270;2024-03-23T08:23:33;45.53;;;7.65;;
51927;SDS011;37953;52.806;18.270;2024-03-23T08:26:10;39.97;;;8.75;;
51927;SDS011;37953;52.806;18.270;2024-03-23T08:28:38;58.13;;;9.93;;
51927;SDS011;37953;52.806;18.270;2024-03-23T08:31:06;49.75;;;7.90;;
51927;SDS011;37953;52.806;18.270;2024-03-23T08:33:36;27.48;;;5.85;;
51927;SDS011;37953;52.806;18.270;2024-03-23T08:36:04;42.33;;;7.15;;
51927;SDS011;37953;52.806;18.270;2024-03-23T08:38:35;41.30;;;7.30;;
51927;SDS011;37953;52.806;18.270;2024-03-23T08:43:31;34.45;;;6.40;;
51927;SDS011;37953;52.806;18.270;2024-03-23T08:46:05;40.05;;;5.38;;
51927;SDS011;37953;52.806;18.270;2024-03-23T08:48:35;39.97;;;5.55;;
51927;SDS011;37953;52.806;18.270;2024-03-23T08:51:06;42.13;;;5.75;;
51927;SDS011;37953;52.806;18.270;2024-03-23T08:53:34;31.00;;;6.13;;
51927;SDS011;37953;52.806;18.270;2024-03-23T08:56:01;17.08;;;6.20;;
51927;SDS011;37953;52.806;18.270;2024-03-23T08:58:31;27.75;;;5.78;;
51927;SDS011;37953;52.806;18.270;2024-03-23T09:01:07;18.10;;;5.32;;
51927;SDS011;37953;52.806;18.270;2024-03-23T09:03:34;18.88;;;5.28;;
51927;SDS011;37953;52.806;18.270;2024-03-23T09:06:01;14.75;;;5.10;;
51927;SDS011;37953;52.806;18.270;2024-03-23T09:08:32;23.10;;;5.13;;
51927;SDS011;37953;52.806;18.270;2024-03-23T09:10:58;21.40;;;5.13;;
51927;SDS011;37953;52.806;18.270;2024-03-23T09:13:34;18.38;;;5.20;;
51927;SDS011;37953;52.806;18.270;2024-03-23T09:16:01;15.43;;;4.60;;
51927;SDS011;37953;52.806;18.270;2024-03-23T09:18:35;12.52;;;3.47;;
51927;SDS011;37953;52.806;18.270;2024-03-23T09:21:02;21.55;;;4.13;;
51927;SDS011;37953;52.806;18.270;2024-03-23T09:23:29;39.45;;;6.18;;
51927;SDS011;37953;52.806;18.270;2024-03-23T09:25:56;43.72;;;9.50;;
51927;SDS011;37953;52.806;18.270;2024-03-23T09:28:22;57.42;;;9.85;;
51927;SDS011;37953;52.806;18.270;2024-03-23T09:30:48;39.97;;;9.75;;
51927;SDS011;37953;52.806;18.270;2024-03-23T09:33:14;60.55;;;13.77;;
51927;SDS011;37953;52.806;18.270;2024-03-23T09:35:41;61.58;;;11.00;;
51927;SDS011;37953;52.806;18.270;2024-03-23T09:38:08;48.13;;;7.57;;
51927;SDS011;37953;52.806;18.270;2024-03-23T09:40:44;43.95;;;6.43;;
51927;SDS011;37953;52.806;18.270;2024-03-23T09:43:11;32.53;;;4.15;;
51927;SDS011;37953;52.806;18.270;2024-03-23T09:45:40;41.85;;;4.88;;
51927;SDS011;37953;52.806;18.270;2024-03-23T09:48:08;32.60;;;4.32;;
51927;SDS011;37953;52.806;18.270;2024-03-23T09:50:44;33.80;;;3.58;;
51927;SDS011;37953;52.806;18.270;2024-03-23T09:53:12;8.15;;;3.17;;
51927;SDS011;37953;52.806;18.270;2024-03-23T09:55:40;14.48;;;3.30;;
51927;SDS011;37953;52.806;18.270;2024-03-23T09:58:07;24.45;;;3.65;;
51927;SDS011;37953;52.806;18.270;2024-03-23T10:00:34;8.70;;;3.00;;
51927;SDS011;37953;52.806;18.270;2024-03-23T10:03:01;18.15;;;3.80;;
51927;SDS011;37953;52.806;18.270;2024-03-23T10:05:28;14.90;;;3.67;;
51927;SDS011;37953;52.806;18.270;2024-03-23T10:08:00;10.20;;;3.13;;
51927;SDS011;37953;52.806;18.270;2024-03-23T10:10:46;10.05;;;3.20;;
51927;SDS011;37953;52.806;18.270;2024-03-23T10:15:58;17.90;;;4.88;;
51927;SDS011;37953;52.806;18.270;2024-03-23T10:18:25;8.50;;;3.42;;
51927;SDS011;37953;52.806;18.270;2024-03-23T10:23:38;35.00;;;3.78;;
51927;SDS011;37953;52.806;18.270;2024-03-23T10:26:12;34.55;;;3.22;;
51927;SDS011;37953;52.806;18.270;2024-03-23T10:28:50;23.95;;;3.15;;
51927;SDS011;37953;52.806;18.270;2024-03-23T10:31:17;25.60;;;2.50;;
51927;SDS011;37953;52.806;18.270;2024-03-23T10:33:45;23.38;;;2.60;;
51927;SDS011;37953;52.806;18.270;2024-03-23T10:36:12;33.55;;;3.67;;
51927;SDS011;37953;52.806;18.270;2024-03-23T10:38:40;16.92;;;2.42;;
51927;SDS011;37953;52.806;18.270;2024-03-23T10:41:08;22.80;;;2.70;;
51927;SDS011;37953;52.806;18.270;2024-03-23T10:43:36;41.35;;;4.55;;
51927;SDS011;37953;52.806;18.270;2024-03-23T10:46:03;31.67;;;3.17;;
51927;SDS011;37953;52.806;18.270;2024-03-23T10:48:41;37.58;;;3.33;;
51927;SDS011;37953;52.806;18.270;2024-03-23T10:51:08;34.78;;;3.67;;
51927;SDS011;37953;52.806;18.270;2024-03-23T10:53:36;20.65;;;3.00;;
51927;SDS011;37953;52.806;18.270;2024-03-23T10:56:05;12.55;;;3.05;;
51927;SDS011;37953;52.806;18.270;2024-03-23T10:58:46;20.02;;;4.85;;
51927;SDS011;37953;52.806;18.270;2024-03-23T11:01:15;17.95;;;5.72;;
51927;SDS011;37953;52.806;18.270;2024-03-23T11:03:45;23.10;;;4.88;;
51927;SDS011;37953;52.806;18.270;2024-03-23T11:09:02;15.73;;;4.72;;
51927;SDS011;37953;52.806;18.270;2024-03-23T11:11:28;17.23;;;4.72;;
51927;SDS011;37953;52.806;18.270;2024-03-23T11:14:07;13.27;;;4.47;;
51927;SDS011;37953;52.806;18.270;2024-03-23T11:19:36;21.10;;;4.63;;
51927;SDS011;37953;52.806;18.270;2024-03-23T11:22:03;14.57;;;4.22;;
51927;SDS011;37953;52.806;18.270;2024-03-23T11:24:55;23.33;;;3.80;;
51927;SDS011;37953;52.806;18.270;2024-03-23T11:27:21;52.40;;;5.72;;
51927;SDS011;37953;52.806;18.270;2024-03-23T11:29:47;36.95;;;4.85;;
51927;SDS011;37953;52.806;18.270;2024-03-23T11:32:14;32.83;;;5.43;;
51927;SDS011;37953;52.806;18.270;2024-03-23T11:34:40;47.15;;;6.20;;
51927;SDS011;37953;52.806;18.270;2024-03-23T11:37:06;37.70;;;4.82;;
51927;SDS011;37953;52.806;18.270;2024-03-23T11:39:32;49.33;;;6.55;;
51927;SDS011;37953;52.806;18.270;2024-03-23T11:41:58;48.75;;;6.80;;
51927;SDS011;37953;52.806;18.270;2024-03-23T11:44:25;30.20;;;4.72;;
51927;SDS011;37953;52.806;18.270;2024-03-23T11:46:52;35.53;;;4.38;;
51927;SDS011;37953;52.806;18.270;2024-03-23T11:49:22;41.60;;;5.75;;
51927;SDS011;37953;52.806;18.270;2024-03-23T11:51:49;30.75;;;5.68;;
51927;SDS011;37953;52.806;18.270;2024-03-23T11:54:20;22.63;;;4.88;;
51927;SDS011;37953;52.806;18.270;2024-03-23T11:59:40;25.42;;;8.10;;
51927;SDS011;37953;52.806;18.270;2024-03-23T12:02:10;26.73;;;8.18;;
51927;SDS011;37953;52.806;18.270;2024-03-23T12:04:40;22.17;;;6.70;;
51927;SDS011;37953;52.806;18.270;2024-03-23T12:07:17;21.00;;;6.15;;
51927;SDS011;37953;52.806;18.270;2024-03-23T12:09:44;19.25;;;7.32;;
51927;SDS011;37953;52.806;18.270;2024-03-23T12:12:15;26.25;;;7.80;;
51927;SDS011;37953;52.806;18.270;2024-03-23T12:14:45;16.08;;;5.93;;
51927;SDS011;37953;52.806;18.270;2024-03-23T12:17:32;14.13;;;5.07;;
51927;SDS011;37953;52.806;18.270;2024-03-23T12:19:58;12.05;;;4.65;;
51927;SDS011;37953;52.806;18.270;2024-03-23T12:22:24;33.45;;;5.82;;
51927;SDS011;37953;52.806;18.270;2024-03-23T12:24:50;34.70;;;5.18;;
51927;SDS011;37953;52.806;18.270;2024-03-23T12:27:17;21.25;;;4.72;;
51927;SDS011;37953;52.806;18.270;2024-03-23T12:29:43;39.22;;;5.47;;
51927;SDS011;37953;52.806;18.270;2024-03-23T12:32:12;31.10;;;5.55;;
51927;SDS011;37953;52.806;18.270;2024-03-23T12:34:39;31.80;;;4.72;;
51927;SDS011;37953;52.806;18.270;2024-03-23T12:37:05;37.42;;;4.18;;
51927;SDS011;37953;52.806;18.270;2024-03-23T12:39:31;23.88;;;4.00;;
51927;SDS011;37953;52.806;18.270;2024-03-23T12:41:58;40.33;;;5.22;;
51927;SDS011;37953;52.806;18.270;2024-03-23T12:44:24;32.20;;;4.95;;
51927;SDS011;37953;52.806;18.270;2024-03-23T12:46:50;21.00;;;4.75;;
51927;SDS011;37953;52.806;18.270;2024-03-23T12:49:16;34.65;;;4.38;;
51927;SDS011;37953;52.806;18.270;2024-03-23T12:51:47;24.52;;;4.07;;
51927;SDS011;37953;52.806;18.270;2024-03-23T12:54:20;8.85;;;3.55;;
51927;SDS011;37953;52.806;18.270;2024-03-23T12:56:46;13.77;;;3.30;;
51927;SDS011;37953;52.806;18.270;2024-03-23T12:59:12;6.90;;;3.20;;
51927;SDS011;37953;52.806;18.270;2024-03-23T13:01:48;15.10;;;3.47;;
51927;SDS011;37953;52.806;18.270;2024-03-23T13:04:14;8.57;;;3.40;;
51927;SDS011;37953;52.806;18.270;2024-03-23T13:06:51;13.27;;;3.28;;
51927;SDS011;37953;52.806;18.270;2024-03-23T13:09:17;9.50;;;3.17;;
51927;SDS011;37953;52.806;18.270;2024-03-23T13:11:53;15.48;;;3.75;;
51927;SDS011;37953;52.806;18.270;2024-03-23T13:14:19;14.65;;;3.00;;
51927;SDS011;37953;52.806;18.270;2024-03-23T13:16:49;9.48;;;2.33;;
51927;SDS011;37953;52.806;18.270;2024-03-23T13:19:15;15.57;;;2.65;;
51927;SDS011;37953;52.806;18.270;2024-03-23T13:21:41;13.02;;;2.75;;
51927;SDS011;37953;52.806;18.270;2024-03-23T13:24:07;21.25;;;3.00;;
51927;SDS011;37953;52.806;18.270;2024-03-23T13:26:36;22.27;;;2.95;;
51927;SDS011;37953;52.806;18.270;2024-03-23T13:29:02;25.88;;;3.47;;
51927;SDS011;37953;52.806;18.270;2024-03-23T13:31:28;19.85;;;2.92;;
51927;SDS011;37953;52.806;18.270;2024-03-23T13:33:54;34.00;;;3.25;;
51927;SDS011;37953;52.806;18.270;2024-03-23T13:36:20;20.98;;;3.00;;
51927;SDS011;37953;52.806;18.270;2024-03-23T13:38:46;37.83;;;3.67;;
51927;SDS011;37953;52.806;18.270;2024-03-23T13:41:13;28.90;;;3.53;;
51927;SDS011;37953;52.806;18.270;2024-03-23T13:43:38;11.80;;;2.67;;
51927;SDS011;37953;52.806;18.270;2024-03-23T13:46:06;24.60;;;3.17;;
51927;SDS011;37953;52.806;18.270;2024-03-23T13:48:32;28.10;;;3.50;;
51927;SDS011;37953;52.806;18.270;2024-03-23T13:51:04;15.57;;;3.50;;
51927;SDS011;37953;52.806;18.270;2024-03-23T13:53:35;18.20;;;4.47;;
51927;SDS011;37953;52.806;18.270;2024-03-23T13:56:01;30.20;;;4.90;;
51927;SDS011;37953;52.806;18.270;2024-03-23T13:58:28;34.63;;;6.65;;
51927;SDS011;37953;52.806;18.270;2024-03-23T14:00:56;26.20;;;4.68;;
51927;SDS011;37953;52.806;18.270;2024-03-23T14:03:23;19.55;;;4.65;;
51927;SDS011;37953;52.806;18.270;2024-03-23T14:05:49;30.98;;;4.57;;
51927;SDS011;37953;52.806;18.270;2024-03-23T14:08:17;19.88;;;5.57;;
51927;SDS011;37953;52.806;18.270;2024-03-23T14:10:43;30.58;;;5.72;;
51927;SDS011;37953;52.806;18.270;2024-03-23T14:13:10;40.10;;;5.53;;
51927;SDS011;37953;52.806;18.270;2024-03-23T14:15:36;25.55;;;4.65;;
51927;SDS011;37953;52.806;18.270;2024-03-23T14:18:02;22.27;;;3.75;;
51927;SDS011;37953;52.806;18.270;2024-03-23T14:20:29;31.33;;;6.88;;
51927;SDS011;37953;52.806;18.270;2024-03-23T14:22:55;148.95;;;9.00;;
51927;SDS011;37953;52.806;18.270;2024-03-23T14:25:22;14.30;;;4.95;;
51927;SDS011;37953;52.806;18.270;2024-03-23T14:27:53;14.20;;;5.38;;
51927;SDS011;37953;52.806;18.270;2024-03-23T14:30:20;14.60;;;4.63;;
51927;SDS011;37953;52.806;18.270;2024-03-23T14:32:46;17.63;;;4.53;;
51927;SDS011;37953;52.806;18.270;2024-03-23T14:35:12;13.63;;;4.57;;
51927;SDS011;37953;52.806;18.270;2024-03-23T14:37:38;18.20;;;4.65;;
51927;SDS011;37953;52.806;18.270;2024-03-23T14:40:08;15.88;;;4.60;;
51927;SDS011;37953;52.806;18.270;2024-03-23T14:42:34;10.55;;;4.13;;
51927;SDS011;37953;52.806;18.270;2024-03-23T14:45:01;11.95;;;3.28;;
51927;SDS011;37953;52.806;18.270;2024-03-23T14:47:27;16.20;;;4.50;;
51927;SDS011;37953;52.806;18.270;2024-03-23T14:49:58;12.05;;;4.05;;
51927;SDS011;37953;52.806;18.270;2024-03-23T14:52:28;15.60;;;3.30;;
51927;SDS011;37953;52.806;18.270;2024-03-23T14:54:58;22.35;;;3.88;;
51927;SDS011;37953;52.806;18.270;2024-03-23T14:57:24;16.85;;;3.60;;
51927;SDS011;37953;52.806;18.270;2024-03-23T14:59:50;26.33;;;4.50;;
51927;SDS011;37953;52.806;18.270;2024-03-23T15:02:17;7.30;;;3.28;;
51927;SDS011;37953;52.806;18.270;2024-03-23T15:04:43;15.90;;;2.67;;
51927;SDS011;37953;52.806;18.270;2024-03-23T15:07:09;12.93;;;2.65;;
51927;SDS011;37953;52.806;18.270;2024-03-23T15:09:36;8.07;;;2.20;;
51927;SDS011;37953;52.806;18.270;2024-03-23T15:12:02;12.73;;;2.70;;
51927;SDS011;37953;52.806;18.270;2024-03-23T15:14:28;12.38;;;1.90;;
51927;SDS011;37953;52.806;18.270;2024-03-23T15:16:55;5.70;;;2.35;;
51927;SDS011;37953;52.806;18.270;2024-03-23T15:19:21;10.05;;;4.13;;
51927;SDS011;37953;52.806;18.270;2024-03-23T15:21:47;13.93;;;5.32;;
51927;SDS011;37953;52.806;18.270;2024-03-23T15:24:14;19.90;;;9.82;;
51927;SDS011;37953;52.806;18.270;2024-03-23T15:26:40;29.42;;;12.02;;
51927;SDS011;37953;52.806;18.270;2024-03-23T15:29:07;21.98;;;6.90;;
51927;SDS011;37953;52.806;18.270;2024-03-23T15:31:37;17.05;;;7.07;;